createdAt,value
2023-03-22T00:01:55.296Z,14.10
2023-03-22T00:04:25.609Z,14.12
2023-03-22T00:06:56.064Z,14.13
2023-03-22T00:09:26.401Z,14.13
2023-03-22T00:11:57.006Z,14.16
2023-03-22T00:14:27.589Z,14.18
2023-03-22T00:16:58.240Z,14.19
2023-03-22T00:19:30.646Z,14.21
2023-03-22T00:22:02.321Z,14.22
2023-03-22T00:24:32.723Z,14.24
2023-03-22T00:27:03.243Z,14.25
2023-03-22T00:29:34.012Z,14.28
2023-03-22T00:32:05.803Z,14.29
2023-03-22T00:34:36.782Z,14.33
2023-03-22T00:37:07.193Z,14.33
2023-03-22T00:39:37.431Z,14.35
2023-03-22T00:42:09.268Z,14.37
2023-03-22T00:44:39.705Z,14.38
2023-03-22T00:47:10.070Z,14.39
2023-03-22T00:49:43.748Z,14.40
2023-03-22T00:52:14.128Z,14.44
2023-03-22T00:54:45.285Z,14.46
2023-03-22T00:57:16.431Z,14.47
2023-03-22T00:59:47.547Z,14.49
2023-03-22T01:02:19.269Z,14.47
2023-03-22T01:04:51.471Z,14.49
2023-03-22T01:07:23.117Z,14.50
2023-03-22T01:09:54.759Z,14.52
2023-03-22T01:12:25.346Z,14.53
2023-03-22T01:14:55.863Z,14.55
2023-03-22T01:17:26.065Z,14.56
2023-03-22T01:19:56.448Z,14.55
2023-03-22T01:22:26.701Z,14.57
2023-03-22T01:24:57.937Z,14.56
2023-03-22T01:27:28.761Z,14.58
2023-03-22T01:30:00.099Z,14.57
2023-03-22T01:32:30.466Z,14.60
2023-03-22T01:35:01.044Z,14.60
2023-03-22T01:37:34.198Z,14.61
2023-03-22T01:40:06.161Z,14.62
2023-03-22T01:42:37.223Z,14.61
2023-03-22T01:45:16.893Z,14.61
2023-03-22T01:47:54.146Z,14.64
2023-03-22T01:50:26.691Z,14.68
2023-03-22T01:52:58.583Z,14.70
2023-03-22T01:55:35.031Z,14.68
2023-03-22T01:58:17.905Z,14.70
2023-03-22T02:00:57.238Z,14.71
2023-03-22T02:04:04.274Z,14.71
2023-03-22T02:06:43.470Z,14.77
2023-03-22T02:09:23.624Z,14.75
2023-03-22T02:12:21.981Z,14.77
2023-03-22T02:15:18.093Z,14.81
2023-03-22T02:18:25.367Z,14.82
2023-03-22T02:21:32.099Z,14.87
2023-03-22T02:24:25.067Z,14.88
2023-03-22T02:27:27.761Z,14.89
2023-03-22T02:30:17.928Z,14.91
2023-03-22T02:33:36.162Z,14.94
2023-03-22T02:36:26.744Z,14.94
2023-03-22T02:39:16.001Z,14.96
2023-03-22T02:42:09.046Z,14.98
2023-03-22T02:44:44.527Z,14.99
2023-03-22T02:47:24.360Z,14.99
2023-03-22T02:50:17.425Z,15.00
2023-03-22T02:53:02.456Z,15.01
2023-03-22T02:55:55.340Z,15.03
2023-03-22T02:58:34.123Z,15.04
2023-03-22T03:01:10.497Z,15.06
2023-03-22T03:03:41.872Z,15.07
2023-03-22T03:06:20.149Z,15.08
2023-03-22T03:08:55.024Z,15.09
2023-03-22T03:11:25.493Z,15.10
2023-03-22T03:13:56.182Z,15.11
2023-03-22T03:16:31.062Z,15.11
2023-03-22T03:19:27.554Z,15.14
2023-03-22T03:22:15.126Z,15.14
2023-03-22T03:25:03.951Z,15.16
2023-03-22T03:27:41.649Z,15.17
2023-03-22T03:30:48.313Z,15.18
2023-03-22T03:33:22.467Z,15.18
2023-03-22T03:36:14.215Z,15.21
2023-03-22T03:38:49.721Z,15.21
2023-03-22T03:41:26.617Z,15.23
2023-03-22T03:43:59.976Z,15.23
2023-03-22T03:46:30.854Z,15.25
2023-03-22T03:49:02.353Z,15.26
2023-03-22T03:51:32.973Z,15.26
2023-03-22T03:54:03.359Z,15.26
2023-03-22T03:56:33.740Z,15.28
2023-03-22T03:59:04.121Z,15.28
2023-03-22T04:01:34.700Z,15.30
2023-03-22T04:04:20.198Z,15.32
2023-03-22T04:06:54.537Z,15.33
2023-03-22T04:09:32.214Z,15.34
2023-03-22T04:12:12.801Z,15.35
2023-03-22T04:14:44.442Z,15.37
2023-03-22T04:17:23.760Z,15.37
2023-03-22T04:19:55.077Z,15.38
2023-03-22T04:22:26.789Z,15.40
2023-03-22T04:24:57.443Z,15.42
2023-03-22T04:27:28.925Z,15.42
2023-03-22T04:30:06.923Z,15.45
2023-03-22T04:32:55.187Z,15.46
2023-03-22T04:35:36.373Z,15.46
2023-03-22T04:38:06.867Z,15.47
2023-03-22T04:40:40.134Z,15.49
2023-03-22T04:43:20.443Z,15.49
2023-03-22T04:46:03.299Z,15.51
2023-03-22T04:48:44.008Z,15.53
2023-03-22T04:51:14.681Z,15.54
2023-03-22T04:53:56.178Z,15.57
2023-03-22T04:56:27.177Z,15.58
2023-03-22T04:58:57.548Z,15.61
2023-03-22T05:01:28.011Z,15.64
2023-03-22T05:04:11.076Z,15.63
2023-03-22T05:06:41.832Z,15.65
2023-03-22T05:09:23.636Z,15.67
2023-03-22T05:11:56.331Z,15.69
2023-03-22T05:14:42.437Z,15.72
2023-03-22T05:17:15.097Z,15.74
2023-03-22T05:19:47.347Z,15.76
2023-03-22T05:22:17.765Z,15.78
2023-03-22T05:24:51.546Z,15.79
2023-03-22T05:27:32.807Z,15.81
2023-03-22T05:30:11.468Z,15.80
2023-03-22T05:33:07.345Z,15.83
2023-03-22T05:35:43.899Z,15.85
2023-03-22T05:38:14.956Z,15.87
2023-03-22T05:40:50.003Z,15.88
2023-03-22T05:43:21.886Z,15.88
2023-03-22T05:45:53.575Z,15.90
2023-03-22T05:48:49.776Z,15.91
2023-03-22T05:51:21.253Z,15.93
2023-03-22T05:53:55.079Z,15.93
2023-03-22T05:56:29.979Z,15.95
2023-03-22T05:59:08.510Z,15.95
2023-03-22T06:01:39.089Z,15.97
2023-03-22T06:04:20.185Z,15.98
2023-03-22T06:07:03.226Z,15.98
2023-03-22T06:09:41.341Z,16.00
2023-03-22T06:12:18.775Z,16.01
2023-03-22T06:14:54.564Z,16.03
2023-03-22T06:17:43.861Z,16.03
2023-03-22T06:20:17.824Z,16.04
2023-03-22T06:22:54.493Z,16.04
2023-03-22T06:25:25.745Z,16.04
2023-03-22T06:27:56.224Z,16.06
2023-03-22T06:30:28.055Z,16.08
2023-03-22T06:33:20.880Z,16.10
2023-03-22T06:35:57.708Z,16.12
2023-03-22T06:38:34.572Z,16.13
2023-03-22T06:41:05.925Z,16.12
2023-03-22T06:43:36.762Z,16.13
2023-03-22T06:46:24.976Z,16.13
2023-03-22T06:49:04.188Z,16.15
2023-03-22T06:51:34.703Z,16.15
2023-03-22T06:54:04.930Z,16.16
2023-03-22T06:56:35.255Z,16.18
2023-03-22T06:59:05.600Z,16.19
2023-03-22T07:01:36.173Z,16.17
2023-03-22T07:04:07.070Z,16.19
2023-03-22T07:06:37.456Z,16.20
2023-03-22T07:09:08.291Z,16.21
2023-03-22T07:11:39.847Z,16.21
2023-03-22T07:14:11.746Z,16.22
2023-03-22T07:17:09.325Z,16.21
2023-03-22T07:19:39.967Z,16.23
2023-03-22T07:22:11.730Z,16.26
2023-03-22T07:24:55.703Z,16.27
2023-03-22T07:27:29.489Z,16.28
2023-03-22T07:30:00.206Z,16.26
2023-03-22T07:32:31.432Z,16.26
2023-03-22T07:35:11.704Z,16.27
2023-03-22T07:37:43.694Z,16.29
2023-03-22T07:40:22.398Z,16.30
2023-03-22T07:42:55.979Z,16.29
2023-03-22T07:45:46.726Z,16.30
2023-03-22T07:48:49.505Z,16.32
2023-03-22T07:51:39.648Z,16.32
2023-03-22T07:54:10.744Z,16.34
2023-03-22T07:56:44.094Z,16.34
2023-03-22T07:59:15.149Z,16.33
2023-03-22T08:01:46.312Z,16.34
2023-03-22T08:04:35.697Z,16.34
2023-03-22T08:07:39.029Z,16.36
2023-03-22T08:10:10.616Z,16.35
2023-03-22T08:12:41.061Z,16.36
2023-03-22T08:15:22.535Z,16.37
2023-03-22T08:17:53.319Z,16.36
2023-03-22T08:20:33.413Z,16.36
2023-03-22T08:23:12.847Z,16.38
2023-03-22T08:26:01.982Z,16.38
2023-03-22T08:28:32.490Z,16.37
2023-03-22T08:31:02.965Z,16.39
2023-03-22T08:33:35.294Z,16.38
2023-03-22T08:36:16.794Z,16.39
2023-03-22T08:38:55.690Z,16.38
2023-03-22T08:41:36.586Z,16.37
2023-03-22T08:44:07.914Z,16.37
2023-03-22T08:46:39.309Z,16.38
2023-03-22T08:49:12.001Z,16.37
2023-03-22T08:51:51.865Z,16.37
2023-03-22T08:54:42.736Z,16.38
2023-03-22T08:57:39.440Z,16.37
2023-03-22T09:00:39.061Z,16.37
2023-03-22T09:03:22.386Z,16.37
2023-03-22T09:05:53.487Z,16.36
2023-03-22T09:08:24.004Z,16.36
2023-03-22T09:11:00.877Z,16.34
2023-03-22T09:13:33.898Z,16.35
2023-03-22T09:16:10.481Z,16.36
2023-03-22T09:18:43.014Z,16.34
2023-03-22T09:21:19.349Z,16.34
2023-03-22T09:24:00.747Z,16.33
2023-03-22T09:26:41.552Z,16.33
2023-03-22T09:29:12.570Z,16.32
2023-03-22T09:31:43.337Z,16.33
2023-03-22T09:34:33.580Z,16.33
2023-03-22T09:37:04.586Z,16.32
2023-03-22T09:39:46.115Z,16.33
2023-03-22T09:42:43.788Z,16.32
2023-03-22T09:45:22.694Z,16.31
2023-03-22T09:47:57.984Z,16.31
2023-03-22T09:50:33.136Z,16.30
2023-03-22T09:53:04.094Z,16.30
2023-03-22T09:55:41.438Z,16.30
2023-03-22T09:58:22.350Z,16.30
2023-03-22T10:01:24.846Z,16.30
2023-03-22T10:04:09.843Z,16.31
2023-03-22T10:06:42.085Z,16.31
2023-03-22T10:09:37.375Z,16.30
2023-03-22T10:12:18.460Z,16.29
2023-03-22T10:14:53.737Z,16.28
2023-03-22T10:17:29.306Z,16.28
2023-03-22T10:20:10.401Z,16.29
2023-03-22T10:22:46.057Z,16.27
2023-03-22T10:25:22.035Z,16.28
2023-03-22T10:27:53.462Z,16.27
2023-03-22T10:30:30.649Z,16.27
2023-03-22T10:33:15.568Z,16.27
2023-03-22T10:35:46.274Z,16.27
2023-03-22T10:38:26.175Z,16.28
2023-03-22T10:41:00.281Z,16.27
2023-03-22T10:43:52.815Z,16.26
2023-03-22T10:46:27.698Z,16.26
2023-03-22T10:49:02.748Z,16.26
2023-03-22T10:51:53.083Z,16.26
2023-03-22T10:54:26.493Z,16.25
2023-03-22T10:56:57.026Z,16.27
2023-03-22T10:59:52.676Z,16.25
2023-03-22T11:02:32.401Z,16.27
2023-03-22T11:05:08.728Z,16.26
2023-03-22T11:07:46.733Z,16.26
2023-03-22T11:10:37.094Z,16.26
2023-03-22T11:13:13.262Z,16.25
2023-03-22T11:15:52.770Z,16.26
2023-03-22T11:18:23.660Z,16.25
2023-03-22T11:21:12.282Z,16.25
2023-03-22T11:23:57.766Z,16.25
2023-03-22T11:26:32.170Z,16.25
2023-03-22T11:29:29.391Z,16.24
2023-03-22T11:32:01.700Z,16.24
2023-03-22T11:34:33.562Z,16.24
2023-03-22T11:37:10.007Z,16.24
2023-03-22T11:39:51.516Z,16.24
2023-03-22T11:42:23.529Z,16.24
2023-03-22T11:44:55.044Z,16.24
2023-03-22T11:47:28.797Z,16.25
2023-03-22T11:50:00.085Z,16.24
2023-03-22T11:52:30.576Z,16.25
2023-03-22T11:55:03.218Z,16.26
2023-03-22T11:57:37.702Z,16.25
2023-03-22T12:00:28.211Z,16.24
2023-03-22T12:03:01.532Z,16.25
2023-03-22T12:05:33.488Z,16.24
2023-03-22T12:08:18.251Z,16.25
2023-03-22T12:10:54.221Z,16.24
2023-03-22T12:13:24.423Z,16.24
2023-03-22T12:16:01.224Z,16.22
2023-03-22T12:18:35.563Z,16.24
2023-03-22T12:21:06.233Z,16.24
2023-03-22T12:23:37.302Z,16.23
2023-03-22T12:26:17.590Z,16.23
2023-03-22T12:29:06.244Z,16.24
2023-03-22T12:31:44.266Z,16.25
2023-03-22T12:34:26.346Z,16.23
2023-03-22T12:36:59.176Z,16.23
2023-03-22T12:39:39.852Z,16.24
2023-03-22T12:42:29.302Z,16.24
2023-03-22T12:45:18.413Z,16.23
2023-03-22T12:47:53.368Z,16.24
2023-03-22T12:50:36.086Z,16.23
2023-03-22T12:53:07.985Z,16.24
2023-03-22T12:55:41.401Z,16.23
2023-03-22T12:58:15.906Z,16.23
2023-03-22T13:01:47.062Z,16.24
2023-03-22T13:04:38.826Z,16.23
2023-03-22T13:07:32.407Z,16.23
2023-03-22T13:10:38.437Z,16.25
2023-03-22T13:13:14.932Z,16.22
2023-03-22T13:16:25.971Z,16.24
2023-03-22T13:19:00.637Z,16.23
2023-03-22T13:21:35.299Z,16.23
2023-03-22T13:24:10.348Z,16.24
2023-03-22T13:26:55.738Z,16.23
2023-03-22T13:29:35.833Z,16.23
2023-03-22T13:32:46.236Z,16.21
2023-03-22T13:35:52.743Z,16.21
2023-03-22T13:38:28.838Z,16.22
2023-03-22T13:41:09.669Z,16.20
2023-03-22T13:44:04.791Z,16.20
2023-03-22T13:46:40.284Z,16.20
2023-03-22T13:49:33.915Z,16.20
2023-03-22T13:52:09.284Z,16.19
2023-03-22T13:54:53.867Z,16.21
2023-03-22T13:57:50.646Z,16.20
2023-03-22T14:00:33.217Z,16.19
2023-03-22T14:03:25.205Z,16.19
2023-03-22T14:06:26.826Z,16.19
2023-03-22T14:09:03.740Z,16.19
2023-03-22T14:11:50.838Z,16.21
2023-03-22T14:14:33.558Z,16.19
2023-03-22T14:17:22.928Z,16.20
2023-03-22T14:19:54.998Z,16.20
